createdAt,value
2022-11-13T00:02:26.872Z,9.27
2022-11-13T00:04:54.224Z,8.93
2022-11-13T00:07:21.305Z,10.63
2022-11-13T00:09:48.357Z,9.80
2022-11-13T00:12:16.818Z,9.17
2022-11-13T00:14:44.458Z,9.30
2022-11-13T00:17:11.366Z,9.00
2022-11-13T00:19:38.361Z,8.63
2022-11-13T00:22:05.274Z,8.17
2022-11-13T00:24:32.241Z,9.00
2022-11-13T00:26:59.214Z,9.67
2022-11-13T00:29:27.523Z,10.90
2022-11-13T00:31:54.621Z,9.67
2022-11-13T00:37:08.498Z,9.00
2022-11-13T00:39:35.460Z,9.60
2022-11-13T00:42:02.483Z,8.77
2022-11-13T00:44:30.787Z,8.10
2022-11-13T00:46:57.751Z,9.60
2022-11-13T00:49:24.748Z,9.30
2022-11-13T00:51:51.700Z,9.37
2022-11-13T00:54:18.989Z,9.57
2022-11-13T00:56:45.944Z,9.30
2022-11-13T00:59:13.022Z,9.13
2022-11-13T01:01:41.371Z,8.00
2022-11-13T01:04:08.351Z,8.30
2022-11-13T01:06:35.332Z,9.30
2022-11-13T01:09:02.341Z,9.87
2022-11-13T01:11:31.235Z,8.40
2022-11-13T01:13:58.734Z,8.43
2022-11-13T01:16:27.651Z,8.83
2022-11-13T01:18:57.031Z,8.53
2022-11-13T01:21:27.345Z,7.43
2022-11-13T01:23:55.033Z,8.87
2022-11-13T01:26:25.895Z,9.57
2022-11-13T01:28:54.040Z,8.40
2022-11-13T01:31:24.572Z,9.00
2022-11-13T01:33:51.972Z,9.47
2022-11-13T01:36:26.007Z,13.50
2022-11-13T01:38:53.525Z,8.47
2022-11-13T01:41:24.819Z,8.97
2022-11-13T01:43:54.416Z,9.80
2022-11-13T01:46:26.736Z,8.47
2022-11-13T01:49:13.166Z,8.53
2022-11-13T01:51:49.107Z,9.83
2022-11-13T01:54:22.212Z,7.07
2022-11-13T01:56:51.168Z,7.80
2022-11-13T01:59:24.163Z,9.63
2022-11-13T02:01:51.348Z,9.50
2022-11-13T02:04:18.407Z,7.80
2022-11-13T02:06:51.811Z,8.30
2022-11-13T02:09:23.386Z,8.77
2022-11-13T02:11:52.151Z,8.90
2022-11-13T02:14:22.704Z,10.13
2022-11-13T02:16:56.209Z,7.93
2022-11-13T02:19:29.728Z,9.83
2022-11-13T02:22:10.986Z,7.53
2022-11-13T02:24:45.279Z,8.63
2022-11-13T02:27:23.084Z,7.93
2022-11-13T02:29:50.065Z,8.13
2022-11-13T02:32:17.096Z,8.03
2022-11-13T02:34:44.071Z,7.30
2022-11-13T02:37:11.495Z,7.47
2022-11-13T02:39:40.399Z,8.37
2022-11-13T02:42:07.331Z,10.00
2022-11-13T02:44:34.347Z,10.40
2022-11-13T02:47:01.302Z,8.30
2022-11-13T02:49:28.218Z,7.80
2022-11-13T02:51:55.167Z,7.23
2022-11-13T02:54:22.205Z,6.57
2022-11-13T02:56:50.524Z,8.03
2022-11-13T02:59:17.501Z,7.10
2022-11-13T03:01:44.489Z,7.20
2022-11-13T03:04:11.459Z,9.50
2022-11-13T03:06:38.479Z,7.00
2022-11-13T03:09:05.460Z,7.17
2022-11-13T03:11:32.446Z,6.97
2022-11-13T03:14:00.745Z,6.63
2022-11-13T03:16:28.480Z,10.53
2022-11-13T03:18:56.328Z,8.87
2022-11-13T03:21:24.221Z,8.63
2022-11-13T03:23:51.220Z,8.00
2022-11-13T03:26:18.326Z,7.60
2022-11-13T03:28:45.858Z,6.93
2022-11-13T03:31:14.227Z,7.00
2022-11-13T03:33:41.569Z,12.47
2022-11-13T03:36:09.086Z,7.10
2022-11-13T03:38:36.442Z,7.60
2022-11-13T03:41:03.954Z,8.93
2022-11-13T03:43:31.386Z,7.30
2022-11-13T03:45:58.375Z,7.70
2022-11-13T03:48:26.939Z,8.07
2022-11-13T03:50:55.846Z,7.87
2022-11-13T03:53:22.833Z,9.03
2022-11-13T03:55:49.857Z,7.70
2022-11-13T03:58:17.449Z,8.20
2022-11-13T04:00:45.942Z,8.50
2022-11-13T04:03:12.902Z,8.07
2022-11-13T04:05:43.024Z,7.87
2022-11-13T04:08:10.661Z,9.83
2022-11-13T04:10:37.641Z,7.53
2022-11-13T04:13:04.650Z,9.23
2022-11-13T04:15:31.627Z,7.50
2022-11-13T04:17:58.643Z,7.33
2022-11-13T04:20:27.763Z,8.03
2022-11-13T04:22:56.697Z,8.93
2022-11-13T04:25:23.874Z,8.13
2022-11-13T04:27:51.614Z,7.47
2022-11-13T04:30:19.145Z,8.43
2022-11-13T04:32:46.110Z,8.10
2022-11-13T04:35:13.096Z,7.50
2022-11-13T04:37:40.147Z,8.43
2022-11-13T04:40:10.942Z,7.57
2022-11-13T04:42:49.873Z,8.50
2022-11-13T04:45:18.330Z,7.87
2022-11-13T04:47:45.340Z,7.83
2022-11-13T04:50:14.146Z,9.40
2022-11-13T04:52:41.245Z,8.87
2022-11-13T04:55:11.532Z,12.17
2022-11-13T04:57:39.336Z,12.03
2022-11-13T05:00:09.364Z,9.20
2022-11-13T05:02:36.639Z,8.87
2022-11-13T05:05:05.506Z,8.27
2022-11-13T05:07:32.658Z,9.67
2022-11-13T05:09:59.641Z,8.40
2022-11-13T05:12:27.917Z,9.20
2022-11-13T05:14:54.860Z,7.87
2022-11-13T05:17:23.118Z,7.87
2022-11-13T05:19:50.049Z,11.90
2022-11-13T05:22:16.976Z,10.53
2022-11-13T05:24:43.897Z,9.37
2022-11-13T05:27:16.871Z,11.50
2022-11-13T05:29:45.681Z,9.20
2022-11-13T05:32:12.717Z,8.40
2022-11-13T05:34:39.688Z,9.10
2022-11-13T05:37:06.643Z,9.10
2022-11-13T05:39:33.560Z,8.30
2022-11-13T05:42:00.482Z,7.77
2022-11-13T05:44:27.397Z,11.77
2022-11-13T05:46:55.688Z,9.13
2022-11-13T05:49:22.612Z,8.03
2022-11-13T05:51:49.567Z,9.03
2022-11-13T05:54:16.573Z,8.47
2022-11-13T05:56:43.562Z,7.87
2022-11-13T05:59:10.623Z,9.33
2022-11-13T06:01:40.482Z,10.57
2022-11-13T06:04:10.663Z,16.40
2022-11-13T06:06:37.698Z,9.70
2022-11-13T06:09:06.649Z,10.10
2022-11-13T06:11:34.034Z,9.23
2022-11-13T06:14:01.758Z,8.57
2022-11-13T06:16:33.918Z,8.73
2022-11-13T06:19:03.677Z,11.57
2022-11-13T06:21:35.644Z,8.33
2022-11-13T06:24:04.050Z,10.93
2022-11-13T06:26:33.861Z,9.70
2022-11-13T06:29:03.615Z,9.93
2022-11-13T06:31:34.761Z,8.77
2022-11-13T06:34:02.010Z,9.43
2022-11-13T06:36:33.520Z,8.97
2022-11-13T06:39:01.042Z,9.17
2022-11-13T06:41:31.281Z,9.87
2022-11-13T06:44:02.787Z,9.33
2022-11-13T06:46:31.419Z,11.17
2022-11-13T06:48:59.130Z,9.50
2022-11-13T06:51:28.937Z,8.97
2022-11-13T06:53:58.314Z,10.00
2022-11-13T06:56:26.224Z,10.07
2022-11-13T06:58:55.016Z,9.70
2022-11-13T07:01:25.406Z,9.47
2022-11-13T07:03:53.063Z,9.53
2022-11-13T07:06:24.085Z,9.47
2022-11-13T07:08:52.379Z,10.93
2022-11-13T07:11:23.698Z,11.67
2022-11-13T07:13:51.101Z,10.63
2022-11-13T07:16:18.693Z,9.63
2022-11-13T07:18:50.338Z,9.70
2022-11-13T07:21:17.443Z,10.33
2022-11-13T07:23:44.497Z,9.80
2022-11-13T07:26:11.686Z,9.30
2022-11-13T07:28:40.218Z,12.20
2022-11-13T07:31:09.336Z,10.20
2022-11-13T07:33:36.362Z,10.47
2022-11-13T07:36:03.918Z,10.03
2022-11-13T07:38:31.987Z,9.43
2022-11-13T07:40:59.858Z,10.47
2022-11-13T07:43:27.498Z,11.97
2022-11-13T07:45:58.493Z,11.10
2022-11-13T07:48:27.874Z,11.03
2022-11-13T07:50:59.327Z,11.03
2022-11-13T07:53:26.275Z,10.37
2022-11-13T07:55:53.321Z,10.53
2022-11-13T07:58:20.274Z,12.83
2022-11-13T08:00:47.412Z,14.27
2022-11-13T08:03:18.644Z,11.83
2022-11-13T08:05:45.609Z,13.77
2022-11-13T08:08:14.567Z,14.77
2022-11-13T08:10:42.025Z,14.00
2022-11-13T08:13:10.908Z,13.77
2022-11-13T08:15:38.689Z,14.63
2022-11-13T08:18:06.588Z,13.87
2022-11-13T08:20:34.918Z,14.07
2022-11-13T08:23:04.218Z,13.27
2022-11-13T08:25:33.278Z,13.37
2022-11-13T08:28:00.717Z,13.50
2022-11-13T08:30:29.000Z,12.47
2022-11-13T08:32:56.338Z,13.80
2022-11-13T08:35:29.073Z,12.53
2022-11-13T08:38:02.196Z,15.53
2022-11-13T08:40:29.804Z,11.77
2022-11-13T08:42:59.869Z,12.70
2022-11-13T08:45:27.337Z,12.60
2022-11-13T08:47:54.482Z,13.73
2022-11-13T08:50:21.516Z,16.30
2022-11-13T08:52:53.276Z,14.20
2022-11-13T08:55:22.222Z,13.60
2022-11-13T08:57:49.516Z,15.07
2022-11-13T09:00:17.964Z,13.97
2022-11-13T09:02:45.205Z,15.97
2022-11-13T09:05:12.288Z,14.07
2022-11-13T09:07:39.259Z,13.93
2022-11-13T09:10:07.929Z,15.10
2022-11-13T09:12:36.224Z,14.20
2022-11-13T09:15:03.416Z,13.10
2022-11-13T09:17:30.701Z,14.40
2022-11-13T09:20:03.529Z,14.87
2022-11-13T09:22:31.069Z,15.97
2022-11-13T09:24:58.001Z,14.87
2022-11-13T09:27:24.944Z,15.30
2022-11-13T09:29:55.684Z,13.33
2022-11-13T09:32:22.951Z,13.53
2022-11-13T09:34:49.881Z,14.07
2022-11-13T09:37:17.023Z,13.57
2022-11-13T09:39:43.938Z,13.80
2022-11-13T09:42:18.869Z,13.13
2022-11-13T09:44:53.596Z,13.53
2022-11-13T09:47:27.595Z,13.50
2022-11-13T09:50:02.552Z,13.07
2022-11-13T09:52:36.859Z,13.40
2022-11-13T09:55:05.349Z,18.93
2022-11-13T09:57:42.739Z,13.97
2022-11-13T10:00:15.247Z,12.67
2022-11-13T10:02:58.268Z,12.47
2022-11-13T10:05:43.040Z,14.50
2022-11-13T10:08:17.971Z,12.47
2022-11-13T10:10:55.411Z,12.60
2022-11-13T10:13:38.109Z,11.90
2022-11-13T10:16:20.838Z,14.07
2022-11-13T10:18:50.827Z,12.53
2022-11-13T10:21:32.151Z,13.83
2022-11-13T10:24:14.388Z,11.93
2022-11-13T10:26:41.588Z,11.87
2022-11-13T10:29:13.145Z,11.77
2022-11-13T10:31:46.969Z,14.47
2022-11-13T10:34:17.834Z,13.63
2022-11-13T10:37:03.059Z,13.73
2022-11-13T10:39:30.042Z,13.30
2022-11-13T10:41:57.027Z,13.50
2022-11-13T10:44:32.426Z,13.83
2022-11-13T10:47:13.573Z,11.60
2022-11-13T10:49:41.939Z,11.57
2022-11-13T10:52:19.494Z,11.27
2022-11-13T10:54:47.333Z,11.93
2022-11-13T10:57:33.120Z,14.20
2022-11-13T11:00:00.914Z,12.27
2022-11-13T11:02:29.039Z,12.97
2022-11-13T11:05:05.970Z,12.13
2022-11-13T11:07:41.383Z,13.07
2022-11-13T11:10:23.006Z,12.60
2022-11-13T11:12:55.197Z,14.03
2022-11-13T11:15:28.287Z,11.83
2022-11-13T11:18:02.374Z,12.63
2022-11-13T11:20:44.784Z,13.50
2022-11-13T11:23:24.461Z,12.40
2022-11-13T11:25:58.339Z,11.70
2022-11-13T11:28:35.809Z,11.07
2022-11-13T11:31:12.980Z,10.50
2022-11-13T11:33:52.663Z,11.40
2022-11-13T11:36:32.253Z,12.77
2022-11-13T11:39:20.401Z,9.30
2022-11-13T11:41:58.458Z,10.37
2022-11-13T11:44:33.401Z,9.77
2022-11-13T11:47:00.403Z,8.77
2022-11-13T11:49:27.520Z,9.47
2022-11-13T11:52:11.817Z,9.33
2022-11-13T11:54:43.679Z,10.57
2022-11-13T11:57:39.504Z,11.37
2022-11-13T12:00:12.389Z,10.43
2022-11-13T12:03:24.399Z,10.43
2022-11-13T12:06:11.697Z,9.57
2022-11-13T12:08:52.849Z,11.47
2022-11-13T12:11:29.668Z,10.00
2022-11-13T12:14:09.372Z,9.93
2022-11-13T12:16:49.871Z,9.43
2022-11-13T12:19:31.492Z,11.63
2022-11-13T12:22:12.484Z,11.90
2022-11-13T12:25:03.584Z,9.80
2022-11-13T12:27:38.359Z,10.60
2022-11-13T12:30:16.321Z,8.87
2022-11-13T12:33:06.662Z,9.80
2022-11-13T12:35:34.765Z,13.30
2022-11-13T12:38:14.075Z,11.83
2022-11-13T12:40:55.197Z,11.97
2022-11-13T12:43:51.562Z,9.77
2022-11-13T12:46:19.196Z,11.33
2022-11-13T12:48:47.927Z,10.77
2022-11-13T12:51:17.445Z,10.07
2022-11-13T12:53:48.400Z,10.87
2022-11-13T12:56:32.133Z,9.93
2022-11-13T12:59:33.441Z,8.43
2022-11-13T13:02:04.614Z,10.57
2022-11-13T13:05:01.701Z,10.77
2022-11-13T13:08:04.592Z,10.67
2022-11-13T13:10:49.506Z,9.30
2022-11-13T13:13:28.203Z,8.97
2022-11-13T13:15:58.391Z,8.83
2022-11-13T13:18:30.333Z,10.17
2022-11-13T13:21:09.820Z,9.10
2022-11-13T13:23:39.630Z,7.80
2022-11-13T13:26:15.919Z,9.20
2022-11-13T13:28:50.335Z,8.60
2022-11-13T13:31:37.098Z,8.57
2022-11-13T13:34:31.098Z,9.00
2022-11-13T13:37:18.436Z,8.90
2022-11-13T13:40:02.600Z,9.47
2022-11-13T13:42:53.090Z,10.40
2022-11-13T13:45:36.976Z,9.00
2022-11-13T13:48:11.273Z,9.37
2022-11-13T13:50:45.051Z,9.70
2022-11-13T13:53:18.260Z,11.20
2022-11-13T13:55:50.593Z,9.87
2022-11-13T13:58:24.940Z,9.93
2022-11-13T14:01:17.788Z,9.80
2022-11-13T14:03:45.704Z,10.03
2022-11-13T14:06:21.292Z,13.13
2022-11-13T14:08:48.485Z,10.03
2022-11-13T14:11:19.132Z,9.30
2022-11-13T14:13:46.195Z,8.73
2022-11-13T14:16:14.557Z,8.47
2022-11-13T14:18:42.219Z,8.43
2022-11-13T14:21:16.502Z,8.17
2022-11-13T14:23:48.092Z,7.60
2022-11-13T14:26:15.526Z,7.80
2022-11-13T14:28:53.682Z,8.20
2022-11-13T14:31:29.742Z,9.23
2022-11-13T14:34:00.925Z,8.00
2022-11-13T14:36:32.027Z,6.80
2022-11-13T14:38:59.802Z,7.73
2022-11-13T14:41:34.221Z,9.03
2022-11-13T14:44:02.109Z,7.73
2022-11-13T14:46:35.953Z,8.07
2022-11-13T14:49:03.407Z,7.97
2022-11-13T14:51:34.041Z,9.67
2022-11-13T14:54:07.674Z,9.30
2022-11-13T14:56:38.938Z,8.43
2022-11-13T14:59:16.982Z,8.77
2022-11-13T15:01:56.490Z,8.67
2022-11-13T15:04:24.914Z,8.33
2022-11-13T15:06:55.633Z,8.93
2022-11-13T15:09:24.543Z,10.50
2022-11-13T15:11:51.965Z,10.17
2022-11-13T15:14:21.202Z,10.17
2022-11-13T15:16:52.208Z,11.30
2022-11-13T15:19:30.785Z,10.57
2022-11-13T15:22:26.682Z,11.23
2022-11-13T15:24:44.965Z,10.63
2022-11-13T15:27:16.174Z,11.40
2022-11-13T15:29:44.478Z,10.97
2022-11-13T15:32:14.381Z,10.70
2022-11-13T15:34:43.220Z,15.80
2022-11-13T15:37:13.052Z,12.10
2022-11-13T15:39:40.521Z,11.40
2022-11-13T15:42:14.750Z,12.23
2022-11-13T15:44:41.749Z,12.80
2022-11-13T15:47:28.147Z,12.43
2022-11-13T15:50:12.746Z,13.57
2022-11-13T15:52:44.381Z,15.20
2022-11-13T15:55:27.375Z,15.67
2022-11-13T15:57:55.521Z,18.57
2022-11-13T16:00:25.397Z,16.60
2022-11-13T16:02:55.148Z,16.90
2022-11-13T16:05:25.909Z,15.83
2022-11-13T16:07:53.947Z,17.60
2022-11-13T16:10:24.722Z,20.10
2022-11-13T16:12:52.451Z,18.83
2022-11-13T16:15:19.858Z,18.60
2022-11-13T16:17:50.536Z,18.07
2022-11-13T16:20:18.789Z,21.43
2022-11-13T16:22:47.294Z,21.47
2022-11-13T16:25:17.337Z,27.83
2022-11-13T16:27:45.562Z,20.13
2022-11-13T16:30:19.912Z,20.23
2022-11-13T16:32:47.428Z,22.97
2022-11-13T16:35:16.090Z,24.77
2022-11-13T16:37:43.184Z,20.87
2022-11-13T16:40:21.438Z,21.47
2022-11-13T16:42:48.676Z,24.40
2022-11-13T16:45:17.357Z,22.53
2022-11-13T16:47:45.723Z,22.43
2022-11-13T16:50:16.622Z,25.97
2022-11-13T16:52:43.605Z,24.40
2022-11-13T16:55:10.598Z,26.33
2022-11-13T16:57:39.840Z,23.97
2022-11-13T17:00:12.010Z,25.23
2022-11-13T17:02:39.157Z,26.33
2022-11-13T17:05:06.853Z,23.77
2022-11-13T17:07:33.916Z,23.50
2022-11-13T17:10:28.873Z,22.40
2022-11-13T17:12:54.084Z,22.07
2022-11-13T17:15:21.642Z,21.90
2022-11-13T17:17:49.006Z,24.03
2022-11-13T17:20:19.040Z,25.83
2022-11-13T17:22:48.452Z,25.57
2022-11-13T17:25:17.127Z,22.93
2022-11-13T17:27:44.387Z,23.23
2022-11-13T17:30:14.325Z,21.83
2022-11-13T17:32:41.359Z,22.57
2022-11-13T17:35:12.781Z,21.60
2022-11-13T17:37:40.076Z,21.67
2022-11-13T17:40:09.347Z,22.83
2022-11-13T17:42:36.339Z,19.37
2022-11-13T17:45:03.816Z,21.13
2022-11-13T17:47:33.821Z,20.83
2022-11-13T17:50:06.678Z,19.30
2022-11-13T17:52:34.589Z,17.93
2022-11-13T17:55:05.727Z,16.13
2022-11-13T17:57:33.260Z,21.27
2022-11-13T18:00:00.222Z,20.03
2022-11-13T18:02:27.270Z,19.13
2022-11-13T18:04:58.157Z,19.53
2022-11-13T18:07:26.390Z,18.63
2022-11-13T18:09:53.395Z,20.87
2022-11-13T18:12:20.325Z,18.27
2022-11-13T18:14:52.190Z,15.83
2022-11-13T18:17:19.324Z,16.80
2022-11-13T18:19:46.669Z,17.30
2022-11-13T18:22:15.305Z,15.27
2022-11-13T18:24:42.678Z,16.53
2022-11-13T18:27:10.525Z,18.13
2022-11-13T18:29:37.503Z,17.33
2022-11-13T18:32:04.713Z,14.50
2022-11-13T18:34:32.400Z,18.60
2022-11-13T18:36:59.499Z,18.57
2022-11-13T18:39:27.840Z,16.33
2022-11-13T18:41:58.999Z,15.40
2022-11-13T18:44:26.219Z,17.40
2022-11-13T18:46:53.285Z,14.97
2022-11-13T18:49:20.337Z,14.13
2022-11-13T18:51:47.287Z,15.13
2022-11-13T18:54:14.815Z,15.53
2022-11-13T18:56:43.109Z,15.83
2022-11-13T18:59:11.027Z,15.17
2022-11-13T19:01:39.801Z,14.77
2022-11-13T19:04:22.766Z,15.17
2022-11-13T19:06:51.041Z,12.47
2022-11-13T19:09:19.144Z,13.47
2022-11-13T19:11:47.748Z,13.53
2022-11-13T19:14:17.587Z,14.87
2022-11-13T19:16:45.024Z,12.80
2022-11-13T19:19:18.149Z,14.13
2022-11-13T19:21:46.247Z,13.17
2022-11-13T19:24:14.916Z,15.97
2022-11-13T19:26:43.211Z,14.10
2022-11-13T19:29:11.933Z,15.67
2022-11-13T19:31:38.877Z,16.80
2022-11-13T19:34:08.186Z,16.70
2022-11-13T19:36:36.635Z,15.80
2022-11-13T19:39:04.354Z,17.80
2022-11-13T19:41:31.402Z,16.80
2022-11-13T19:44:00.122Z,18.33
2022-11-13T19:46:31.713Z,16.80
2022-11-13T19:48:58.719Z,20.83
2022-11-13T19:51:26.601Z,19.83
2022-11-13T19:53:55.840Z,18.40
2022-11-13T19:56:24.887Z,19.50
2022-11-13T19:58:52.786Z,19.30
2022-11-13T20:01:23.154Z,17.83
2022-11-13T20:03:56.408Z,20.80
2022-11-13T20:06:24.338Z,19.30
2022-11-13T20:08:51.606Z,20.53
2022-11-13T20:11:18.824Z,20.43
2022-11-13T20:13:46.243Z,21.10
2022-11-13T20:16:15.727Z,21.90
2022-11-13T20:18:44.246Z,23.07
2022-11-13T20:21:12.886Z,23.67
2022-11-13T20:23:40.352Z,23.07
2022-11-13T20:26:13.448Z,22.97
2022-11-13T20:28:40.641Z,23.23
2022-11-13T20:31:16.174Z,23.60
2022-11-13T20:33:43.731Z,24.03
2022-11-13T20:36:13.397Z,26.57
2022-11-13T20:38:40.639Z,24.00
2022-11-13T20:41:10.815Z,25.20
2022-11-13T20:43:37.994Z,25.53
2022-11-13T20:46:07.814Z,26.03
2022-11-13T20:48:35.140Z,26.33
2022-11-13T20:51:07.422Z,23.53
2022-11-13T20:53:36.087Z,25.50
2022-11-13T20:56:03.733Z,25.97
2022-11-13T20:58:31.622Z,24.23
2022-11-13T21:01:02.851Z,25.20
2022-11-13T21:03:29.878Z,22.73
2022-11-13T21:05:56.859Z,22.27
2022-11-13T21:08:24.231Z,22.00
2022-11-13T21:10:52.642Z,23.17
2022-11-13T21:13:19.718Z,27.73
2022-11-13T21:15:46.702Z,23.17
2022-11-13T21:18:13.668Z,24.70
2022-11-13T21:20:40.705Z,21.87
2022-11-13T21:23:07.654Z,27.63
2022-11-13T21:25:34.704Z,22.43
2022-11-13T21:28:03.875Z,22.87
2022-11-13T21:30:30.851Z,23.37
2022-11-13T21:32:59.146Z,23.37
2022-11-13T21:35:27.185Z,24.13
2022-11-13T21:37:54.629Z,25.50
2022-11-13T21:40:22.638Z,23.90
2022-11-13T21:42:49.539Z,25.93
2022-11-13T21:45:17.858Z,26.37
2022-11-13T21:47:44.807Z,20.97
2022-11-13T21:50:12.170Z,22.50
2022-11-13T21:52:39.137Z,26.00
2022-11-13T21:55:07.678Z,22.20
2022-11-13T21:57:34.633Z,22.47
2022-11-13T22:00:01.722Z,21.03
2022-11-13T22:02:30.176Z,23.23
2022-11-13T22:04:57.197Z,22.50
2022-11-13T22:07:24.182Z,23.60
2022-11-13T22:09:51.142Z,23.27
2022-11-13T22:12:18.125Z,25.27
2022-11-13T22:14:45.121Z,23.97
2022-11-13T22:17:12.068Z,24.53
2022-11-13T22:19:40.414Z,26.30
2022-11-13T22:22:07.341Z,24.87
2022-11-13T22:24:34.295Z,24.73
2022-11-13T22:27:01.250Z,25.03
2022-11-13T22:29:28.171Z,23.37
2022-11-13T22:31:55.088Z,22.83
2022-11-13T22:34:21.999Z,22.33
2022-11-13T22:36:50.337Z,25.93
2022-11-13T22:39:17.317Z,24.90
2022-11-13T22:41:44.221Z,22.07
2022-11-13T22:44:14.222Z,21.50
2022-11-13T22:46:41.308Z,23.73
2022-11-13T22:49:11.297Z,23.83
2022-11-13T22:51:41.478Z,24.87
2022-11-13T22:54:12.225Z,21.70
2022-11-13T22:56:40.999Z,25.43
2022-11-13T22:59:11.312Z,23.17
2022-11-13T23:01:40.857Z,25.67
2022-11-13T23:04:12.783Z,24.03
2022-11-13T23:06:39.821Z,26.80
2022-11-13T23:09:06.897Z,23.93
2022-11-13T23:11:40.051Z,25.63
2022-11-13T23:14:12.066Z,24.40
2022-11-13T23:16:39.075Z,25.47
2022-11-13T23:19:06.015Z,26.23
2022-11-13T23:21:33.366Z,24.17
2022-11-13T23:24:00.540Z,27.07
2022-11-13T23:26:28.406Z,26.33
2022-11-13T23:28:57.512Z,24.50
2022-11-13T23:31:24.869Z,24.57
2022-11-13T23:33:51.885Z,25.87
2022-11-13T23:36:18.933Z,23.97
2022-11-13T23:38:46.301Z,26.27
2022-11-13T23:41:13.497Z,26.50
2022-11-13T23:44:07.776Z,24.47
2022-11-13T23:46:29.037Z,25.77
2022-11-13T23:48:56.354Z,24.50
2022-11-13T23:51:23.270Z,24.67
2022-11-13T23:53:50.187Z,26.50
2022-11-13T23:56:17.089Z,23.23
2022-11-13T23:58:44.133Z,25.30
